Time;durP1;ratioP1;P1;durP2;ratioP2;P2;SDS_P1;SDS_P2;PMS_P1;PMS_P2;Temp;Humidity;BMP_temperature;BMP_pressure;BME280_temperature;BME280_humidity;BME280_pressure;Samples;Min_cycle;Max_cycle;Signal;HPM_P1;HPM_P2
2022/07/05 00:00:45;;;;;;;13.20;4.65;;;;;;;23.15;nan;100307.28;5030195;28;20033;-65
2022/07/05 00:03:11;;;;;;;15.05;3.90;;;;;;;23.09;nan;100298.59;5030056;28;20021;-65
2022/07/05 00:05:37;;;;;;;10.95;3.95;;;;;;;23.07;nan;100298.13;5029920;28;20038;-65
2022/07/05 00:08:03;;;;;;;15.98;4.75;;;;;;;23.03;nan;100301.72;5021451;28;20026;-66
2022/07/05 00:10:29;;;;;;;11.27;3.78;;;;;;;22.98;nan;100293.78;5024394;28;20092;-66
2022/07/05 00:12:54;;;;;;;9.88;4.20;;;;;;;22.98;nan;100312.59;5022138;28;20553;-66
2022/07/05 00:15:20;;;;;;;11.60;4.07;;;;;;;22.99;nan;100320.38;5026385;28;20037;-66
2022/07/05 00:17:45;;;;;;;13.80;4.13;;;;;;;22.97;nan;100313.69;5026497;28;20597;-67
2022/07/05 00:20:11;;;;;;;11.48;3.75;;;;;;;22.82;nan;100302.25;5025366;28;20125;-66
2022/07/05 00:22:36;;;;;;;17.38;3.70;;;;;;;22.84;nan;100307.31;5027414;28;20175;-65
2022/07/05 00:25:02;;;;;;;9.68;3.72;;;;;;;22.78;nan;100297.81;5024321;28;20041;-66
2022/07/05 00:27:28;;;;;;;10.30;4.20;;;;;;;22.71;nan;100309.00;5026526;28;20484;-66
2022/07/05 00:29:53;;;;;;;12.30;3.55;;;;;;;22.57;nan;100298.34;5023024;28;20088;-66
2022/07/05 00:32:19;;;;;;;14.55;4.20;;;;;;;22.59;nan;100314.94;5023429;28;20041;-65
2022/07/05 00:34:44;;;;;;;9.32;3.60;;;;;;;22.63;nan;100315.13;5030014;28;20395;-65
2022/07/05 00:37:10;;;;;;;13.93;3.65;;;;;;;22.64;nan;100322.06;5023600;28;20394;-66
2022/07/05 00:39:35;;;;;;;15.68;3.80;;;;;;;22.58;nan;100325.97;5025814;28;20029;-67
2022/07/05 00:42:01;;;;;;;12.57;4.45;;;;;;;22.57;nan;100316.34;5025435;28;20368;-66
2022/07/05 00:44:35;;;;;;;17.25;4.15;;;;;;;22.52;nan;100309.22;5030361;28;20500;-65
2022/07/05 00:47:02;;;;;;;14.20;3.63;;;;;;;22.46;nan;100307.78;5023885;28;20082;-66
2022/07/05 00:49:28;;;;;;;8.70;3.53;;;;;;;22.32;nan;100313.19;5027360;28;20506;-64
2022/07/05 00:51:53;;;;;;;10.88;4.03;;;;;;;22.25;nan;100316.31;5026556;28;20041;-76
2022/07/05 00:54:19;;;;;;;13.65;3.95;;;;;;;22.17;nan;100313.50;5023784;28;20038;-76
2022/07/05 00:56:44;;;;;;;12.80;4.45;;;;;;;22.05;nan;100306.00;5026878;28;20049;-76
2022/07/05 00:59:10;;;;;;;8.93;3.97;;;;;;;21.90;nan;100309.84;5025852;28;20032;-74
2022/07/05 01:01:35;;;;;;;10.20;4.07;;;;;;;21.88;nan;100312.84;5024437;28;20082;-64
2022/07/05 01:04:01;;;;;;;8.85;3.90;;;;;;;21.71;nan;100312.66;5029286;28;20484;-65
2022/07/05 01:06:26;;;;;;;8.02;4.30;;;;;;;21.53;nan;100310.94;5023913;28;20079;-64
2022/07/05 01:08:52;;;;;;;5.95;4.15;;;;;;;21.24;nan;100278.00;5025740;28;20060;-65
2022/07/05 01:11:17;;;;;;;12.88;4.30;;;;;;;21.22;nan;100296.25;5024804;28;20073;-65
2022/07/05 01:13:43;;;;;;;7.55;3.95;;;;;;;21.17;nan;100307.06;5025347;28;20133;-64
2022/07/05 01:16:09;;;;;;;10.82;4.95;;;;;;;21.16;nan;100296.63;5026543;28;20045;-64
2022/07/05 01:18:35;;;;;;;9.85;3.42;;;;;;;21.09;nan;100296.25;5026075;28;20034;-65
2022/07/05 01:21:02;;;;;;;8.13;4.00;;;;;;;21.00;nan;100288.13;5031131;28;20510;-65
2022/07/05 01:23:29;;;;;;;9.40;4.32;;;;;;;20.89;nan;100292.88;5023748;28;20030;-65
2022/07/05 01:25:56;;;;;;;10.30;3.88;;;;;;;20.81;nan;100280.97;5022694;28;20527;-65
2022/07/05 01:28:22;;;;;;;8.15;3.97;;;;;;;20.84;nan;100294.84;5025118;28;20038;-65
2022/07/05 01:30:48;;;;;;;7.35;4.10;;;;;;;20.74;nan;100293.16;5032037;28;20105;-65
2022/07/05 01:33:13;;;;;;;10.48;3.83;;;;;;;20.66;nan;100296.50;5032953;28;20037;-66
2022/07/05 01:35:39;;;;;;;7.00;4.25;;;;;;;20.56;nan;100292.13;5033283;28;20558;-64
2022/07/05 01:38:04;;;;;;;8.05;4.30;;;;;;;20.55;nan;100285.97;5025165;28;20055;-65
2022/07/05 01:40:31;;;;;;;9.48;4.10;;;;;;;20.41;nan;100255.72;5030259;28;20104;-65
2022/07/05 01:42:56;;;;;;;6.97;3.90;;;;;;;20.64;nan;100298.66;5030315;28;20475;-66
2022/07/05 01:45:41;;;;;;;11.57;4.35;;;;;;;20.55;nan;100299.38;5030118;28;20032;-66
2022/07/05 01:48:15;;;;;;;7.65;4.80;;;;;;;20.56;nan;100300.16;5027125;28;20113;-65
2022/07/05 01:50:53;;;;;;;5.65;4.18;;;;;;;20.53;nan;100296.16;5031116;28;20510;-66
2022/07/05 01:53:29;;;;;;;7.80;4.28;;;;;;;20.51;nan;100290.31;5028817;28;20045;-65
2022/07/05 01:55:57;;;;;;;9.48;4.28;;;;;;;20.43;nan;100282.16;5029404;28;20037;-65
2022/07/05 01:58:24;;;;;;;6.03;4.20;;;;;;;20.38;nan;100296.41;5028229;28;20115;-66
2022/07/05 02:00:51;;;;;;;11.07;4.22;;;;;;;20.35;nan;100291.63;5030085;28;20034;-65
2022/07/05 02:03:17;;;;;;;9.20;4.60;;;;;;;20.26;nan;100294.19;5030718;28;20034;-66
2022/07/05 02:05:44;;;;;;;11.52;4.35;;;;;;;20.22;nan;100279.81;5029672;28;20032;-66
2022/07/05 02:08:11;;;;;;;7.25;4.40;;;;;;;20.27;nan;100281.63;5027573;28;20037;-65
2022/07/05 02:10:37;;;;;;;10.73;4.38;;;;;;;20.28;nan;100284.00;5023933;28;20465;-66
2022/07/05 02:13:04;;;;;;;9.77;4.45;;;;;;;20.35;nan;100287.09;5020926;28;20140;-66
2022/07/05 02:15:37;;;;;;;8.95;4.20;;;;;;;20.32;nan;100292.22;5019498;28;20038;-65
2022/07/05 02:18:04;;;;;;;8.98;4.22;;;;;;;20.29;nan;100295.50;5020072;28;20486;-66
2022/07/05 02:20:31;;;;;;;6.40;4.35;;;;;;;20.18;nan;100297.53;5022599;28;20037;-66
2022/07/05 02:22:57;;;;;;;9.00;4.40;;;;;;;20.11;nan;100300.59;5025096;28;20487;-66
2022/07/05 02:25:22;;;;;;;7.22;4.25;;;;;;;20.06;nan;100291.84;5027011;28;20040;-65
2022/07/05 02:27:48;;;;;;;7.80;4.43;;;;;;;20.06;nan;100297.97;5022512;28;20029;-65
2022/07/05 02:30:14;;;;;;;6.13;4.22;;;;;;;20.02;nan;100307.69;5023954;28;20033;-65
2022/07/05 02:32:40;;;;;;;7.72;5.22;;;;;;;19.88;nan;100301.47;5027682;28;20052;-65
2022/07/05 02:35:07;;;;;;;9.43;4.72;;;;;;;19.91;nan;100312.34;5024321;28;20049;-66
2022/07/05 02:37:33;;;;;;;8.18;4.90;;;;;;;19.91;nan;100308.91;5027712;28;20556;-66
2022/07/05 02:39:58;;;;;;;7.90;5.05;;;;;;;19.86;nan;100304.41;5026695;28;20116;-66
2022/07/05 02:42:24;;;;;;;9.40;4.75;;;;;;;19.74;nan;100296.84;5028172;28;20026;-66
2022/07/05 02:44:49;;;;;;;8.68;4.95;;;;;;;19.81;nan;100306.38;5030379;28;20109;-66
2022/07/05 02:47:14;;;;;;;10.48;4.80;;;;;;;19.76;nan;100301.91;5023253;28;20124;-66
2022/07/05 02:49:40;;;;;;;8.77;4.90;;;;;;;19.71;nan;100299.28;5026375;28;20488;-65
2022/07/05 02:52:05;;;;;;;7.68;4.80;;;;;;;19.60;nan;100300.47;5034581;28;20033;-66
2022/07/05 02:54:33;;;;;;;11.18;4.75;;;;;;;19.66;nan;100310.03;5027137;28;20034;-66
2022/07/05 02:56:59;;;;;;;12.02;5.30;;;;;;;19.68;nan;100308.69;5022816;28;20040;-66
2022/07/05 02:59:24;;;;;;;20.58;5.68;;;;;;;19.68;nan;100310.53;5025666;28;20391;-66
2022/07/05 03:01:49;;;;;;;14.73;5.35;;;;;;;19.71;nan;100326.00;5025247;28;20111;-66
2022/07/05 03:04:15;;;;;;;16.15;5.35;;;;;;;19.66;nan;100334.84;5026760;28;20029;-67
2022/07/05 03:06:40;;;;;;;26.55;5.95;;;;;;;19.59;nan;100322.94;5022057;28;20037;-66
2022/07/05 03:09:06;;;;;;;15.45;5.38;;;;;;;19.63;nan;100330.06;5027570;28;20030;-66
2022/07/05 03:11:31;;;;;;;26.00;6.43;;;;;;;19.52;nan;100323.28;5031398;28;20057;-66
2022/07/05 03:13:57;;;;;;;23.50;6.22;;;;;;;19.51;nan;100319.00;5027802;28;20034;-66
2022/07/05 03:16:25;;;;;;;21.33;5.75;;;;;;;19.44;nan;100313.22;5025637;28;20045;-66
2022/07/05 03:18:50;;;;;;;19.55;5.68;;;;;;;19.54;nan;100329.13;5021596;28;20129;-66
2022/07/05 03:21:16;;;;;;;20.52;5.50;;;;;;;19.50;nan;100325.44;5031150;28;20116;-65
2022/07/05 03:23:42;;;;;;;21.15;6.18;;;;;;;19.43;nan;100316.97;5025573;28;20500;-65
2022/07/05 03:26:07;;;;;;;32.08;7.72;;;;;;;19.39;nan;100324.75;5021053;28;20034;-66
2022/07/05 03:28:32;;;;;;;28.55;6.22;;;;;;;19.38;nan;100322.38;5020970;28;20487;-65
2022/07/05 03:30:58;;;;;;;24.02;6.50;;;;;;;19.31;nan;100312.06;5025487;28;20129;-65
2022/07/05 03:33:24;;;;;;;26.20;7.07;;;;;;;19.37;nan;100318.94;5021876;28;20498;-66
2022/07/05 03:35:49;;;;;;;23.08;6.30;;;;;;;19.44;nan;100334.59;5026518;28;20057;-66
2022/07/05 03:38:14;;;;;;;24.35;5.75;;;;;;;19.42;nan;100326.06;5027831;28;20034;-64
2022/07/05 03:40:40;;;;;;;17.67;6.00;;;;;;;19.42;nan;100328.72;5027381;28;20095;-65
2022/07/05 03:43:05;;;;;;;9.50;5.85;;;;;;;19.37;nan;100324.28;5027604;28;20041;-66
2022/07/05 03:45:31;;;;;;;12.15;6.30;;;;;;;19.22;nan;100290.50;5025723;28;20034;-66
2022/07/05 03:48:00;;;;;;;15.48;6.10;;;;;;;19.50;nan;100333.47;5030000;28;20041;-66
2022/07/05 03:50:26;;;;;;;13.15;6.32;;;;;;;19.55;nan;100333.38;5026314;28;20033;-64
2022/07/05 03:52:52;;;;;;;17.77;6.35;;;;;;;19.62;nan;100336.50;5023765;28;20124;-64
2022/07/05 03:55:17;;;;;;;11.65;5.85;;;;;;;19.57;nan;100307.19;5031909;28;20059;-64
2022/07/05 03:57:43;;;;;;;16.92;6.60;;;;;;;19.65;nan;100321.78;5022905;28;20033;-64
2022/07/05 04:00:09;;;;;;;25.05;6.43;;;;;;;19.77;nan;100327.53;5024639;28;20099;-65
2022/07/05 04:02:34;;;;;;;14.15;6.53;;;;;;;19.81;nan;100331.22;5023419;28;20116;-66
2022/07/05 04:05:00;;;;;;;13.82;6.03;;;;;;;19.87;nan;100331.94;5020783;28;20165;-65
2022/07/05 04:07:25;;;;;;;10.00;5.82;;;;;;;19.96;nan;100341.69;5020892;28;20038;-64
2022/07/05 04:09:51;;;;;;;14.95;5.88;;;;;;;19.99;nan;100334.97;5024815;28;20475;-65
2022/07/05 04:12:17;;;;;;;14.88;6.63;;;;;;;20.03;nan;100335.19;5023863;28;20045;-64
2022/07/05 04:14:42;;;;;;;15.00;6.50;;;;;;;20.06;nan;100329.25;5030409;28;20428;-65
2022/07/05 04:17:08;;;;;;;16.50;11.57;;;;;;;20.10;nan;100331.06;5022663;28;20057;-64
2022/07/05 04:19:33;;;;;;;22.20;12.43;;;;;;;20.24;nan;100333.81;5025276;28;20483;-65
2022/07/05 04:21:58;;;;;;;22.45;8.10;;;;;;;20.32;nan;100338.47;5027423;28;20103;-64
2022/07/05 04:24:24;;;;;;;13.75;6.97;;;;;;;20.43;nan;100336.44;5028523;28;20064;-65
2022/07/05 04:26:50;;;;;;;16.85;6.80;;;;;;;20.47;nan;100332.13;5024949;28;20030;-64
2022/07/05 04:29:15;;;;;;;15.02;6.03;;;;;;;20.48;nan;100332.91;5027791;28;20087;-65
2022/07/05 04:31:40;;;;;;;17.23;6.43;;;;;;;20.51;nan;100333.09;5023858;28;20092;-65
2022/07/05 04:34:06;;;;;;;20.40;6.55;;;;;;;20.61;nan;100340.19;5022745;28;20045;-65
2022/07/05 04:36:32;;;;;;;12.63;6.25;;;;;;;20.69;nan;100346.78;5028845;28;20040;-66
2022/07/05 04:38:57;;;;;;;17.92;6.63;;;;;;;20.74;nan;100341.34;5026194;28;20032;-65
2022/07/05 04:41:22;;;;;;;17.42;7.55;;;;;;;20.94;nan;100348.19;5024776;28;20125;-65
2022/07/05 04:43:48;;;;;;;10.00;6.88;;;;;;;21.06;nan;100348.50;5025658;28;20050;-66
2022/07/05 04:46:14;;;;;;;14.93;6.75;;;;;;;21.15;nan;100348.63;5026440;28;20030;-65
2022/07/05 04:48:39;;;;;;;23.38;7.50;;;;;;;21.30;nan;100351.00;5024710;28;20087;-67
2022/07/05 04:51:04;;;;;;;13.15;7.35;;;;;;;21.35;nan;100342.84;5019967;28;20090;-66
2022/07/05 04:53:30;;;;;;;16.80;7.55;;;;;;;21.50;nan;100354.38;5024123;28;20037;-65
2022/07/05 04:55:55;;;;;;;12.32;7.10;;;;;;;21.61;nan;100347.75;5027561;28;20053;-75
2022/07/05 04:58:21;;;;;;;12.98;8.20;;;;;;;21.58;nan;100325.00;5018340;28;20108;-76
2022/07/05 05:00:46;;;;;;;19.40;8.02;;;;;;;21.77;nan;100345.53;5025660;28;20030;-75
2022/07/05 05:03:11;;;;;;;14.68;7.75;;;;;;;21.91;nan;100354.34;5021922;28;20030;-76
2022/07/05 05:05:37;;;;;;;15.52;8.50;;;;;;;21.96;nan;100353.44;5028444;28;20088;-76
2022/07/05 05:08:02;;;;;;;12.98;8.48;;;;;;;22.00;nan;100351.72;5029106;28;20541;-66
2022/07/05 05:10:28;;;;;;;13.85;8.40;;;;;;;22.44;nan;100404.66;5027526;28;20037;-66
2022/07/05 05:12:53;;;;;;;14.40;7.93;;;;;;;22.23;nan;100356.03;5026191;28;20049;-66
2022/07/05 05:15:19;;;;;;;14.80;8.77;;;;;;;22.22;nan;100343.75;5027784;28;20381;-66
2022/07/05 05:17:44;;;;;;;13.40;8.18;;;;;;;22.32;nan;100353.44;5030944;28;20083;-66
2022/07/05 05:20:15;;;;;;;15.18;9.15;;;;;;;22.45;nan;100354.47;5025825;28;20077;-66
2022/07/05 05:22:41;;;;;;;15.23;9.52;;;;;;;22.53;nan;100353.75;5018714;28;20038;-67
2022/07/05 05:25:08;;;;;;;16.60;9.30;;;;;;;22.59;nan;100343.66;5023897;28;20037;-66
2022/07/05 05:27:34;;;;;;;17.27;9.55;;;;;;;22.70;nan;100343.09;5030983;28;20029;-67
2022/07/05 05:29:59;;;;;;;22.75;10.57;;;;;;;22.70;nan;100329.69;5028188;28;20041;-66
2022/07/05 05:32:25;;;;;;;29.38;10.15;;;;;;;22.81;nan;100330.19;5031614;28;20052;-77
2022/07/05 05:34:50;;;;;;;23.40;9.88;;;;;;;22.94;nan;100336.59;5028999;28;20033;-75
2022/07/05 05:37:16;;;;;;;19.58;10.90;;;;;;;23.01;nan;100331.59;5024577;28;20344;-75
2022/07/05 05:39:41;;;;;;;14.95;9.55;;;;;;;23.20;nan;100338.59;5029304;28;20053;-76
2022/07/05 05:42:07;;;;;;;16.70;9.50;;;;;;;23.38;nan;100342.16;5027341;28;20038;-66
2022/07/05 05:44:33;;;;;;;17.90;9.18;;;;;;;23.46;nan;100320.66;5024352;28;20034;-66
2022/07/05 05:46:58;;;;;;;17.63;9.82;;;;;;;23.59;nan;100327.00;5029084;28;20029;-66
2022/07/05 05:49:23;;;;;;;16.83;10.25;;;;;;;23.60;nan;100315.16;5030505;28;20034;-67
2022/07/05 05:51:49;;;;;;;15.30;10.18;;;;;;;23.80;nan;100329.09;5027088;28;20083;-65
2022/07/05 05:54:14;;;;;;;16.63;9.73;;;;;;;23.87;nan;100324.88;5021895;28;20060;-64
2022/07/05 05:56:40;;;;;;;21.58;10.35;;;;;;;23.97;nan;100329.13;5024788;28;20248;-66
2022/07/05 05:59:05;;;;;;;21.50;10.68;;;;;;;24.05;nan;100322.94;5033057;28;20037;-66
2022/07/05 06:01:31;;;;;;;16.90;9.75;;;;;;;24.14;nan;100306.81;5027151;28;20029;-65
2022/07/05 06:03:57;;;;;;;17.83;11.05;;;;;;;24.36;nan;100327.34;5027412;28;20134;-76
2022/07/05 06:06:22;;;;;;;23.27;10.98;;;;;;;24.44;nan;100320.38;5029565;28;20442;-76
2022/07/05 06:08:47;;;;;;;20.77;11.25;;;;;;;24.56;nan;100320.53;5025545;28;20092;-75
2022/07/05 06:11:13;;;;;;;21.80;10.45;;;;;;;24.52;nan;100289.97;5023002;28;20025;-76
2022/07/05 06:13:39;;;;;;;20.02;10.57;;;;;;;24.90;nan;100326.91;5022806;28;20399;-75
2022/07/05 06:16:08;;;;;;;29.20;11.57;;;;;;;25.03;nan;100317.84;5025222;28;20037;-76
2022/07/05 06:18:34;;;;;;;19.38;10.85;;;;;;;25.08;nan;100303.41;5044900;28;20041;-67
2022/07/05 06:20:59;;;;;;;19.70;9.82;;;;;;;25.26;nan;100323.78;5035152;28;20236;-67
2022/07/05 06:23:25;;;;;;;16.83;10.25;;;;;;;25.09;nan;100269.94;5028998;28;20030;-68
2022/07/05 06:25:50;;;;;;;17.20;10.85;;;;;;;25.49;nan;100316.19;5020146;28;20156;-68
2022/07/05 06:28:16;;;;;;;12.88;9.93;;;;;;;25.60;nan;100319.28;5024531;28;20044;-68
2022/07/05 06:30:42;;;;;;;16.05;10.43;;;;;;;25.68;nan;100316.50;5028595;28;20092;-78
2022/07/05 06:33:08;;;;;;;17.42;10.93;;;;;;;25.81;nan;100311.19;5023172;28;20034;-78
2022/07/05 06:35:34;;;;;;;15.98;10.90;;;;;;;25.95;nan;100317.13;5030766;28;20577;-78
2022/07/05 06:38:00;;;;;;;14.82;10.98;;;;;;;26.05;nan;100316.75;5032734;28;20033;-78
2022/07/05 06:40:41;;;;;;;16.38;10.98;;;;;;;26.09;nan;100309.53;5024987;28;20053;-78
2022/07/05 06:43:09;;;;;;;20.42;11.82;;;;;;;26.30;nan;100319.53;5024630;28;20034;-78
2022/07/05 06:45:34;;;;;;;18.48;10.90;;;;;;;26.36;nan;100314.69;5021926;28;20038;-78
2022/07/05 06:48:05;;;;;;;19.48;11.57;;;;;;;26.51;nan;100320.25;5018313;28;20025;-78
2022/07/05 06:50:33;;;;;;;16.83;10.57;;;;;;;26.56;nan;100315.81;5025019;28;20041;-78
2022/07/05 06:52:58;;;;;;;20.90;11.82;;;;;;;26.74;nan;100327.97;5035618;28;20423;-77
2022/07/05 06:55:25;;;;;;;29.02;12.13;;;;;;;26.82;nan;100315.50;5024743;28;20039;-68
2022/07/05 06:58:03;;;;;;;16.60;10.85;;;;;;;26.94;nan;100319.00;5021451;28;20152;-68
2022/07/05 07:00:29;;;;;;;15.00;11.52;;;;;;;27.10;nan;100312.91;5014533;28;20555;-68
2022/07/05 07:02:55;;;;;;;14.27;10.57;;;;;;;27.15;nan;100297.25;5027684;28;20037;-69
2022/07/05 07:05:20;;;;;;;19.08;12.30;;;;;;;27.36;nan;100307.94;5023050;28;20160;-68
2022/07/05 07:10:30;;;;;;;17.55;11.35;;;;;;;27.56;nan;100302.75;5024181;28;20122;-68
2022/07/05 07:12:59;;;;;;;17.95;11.75;;;;;;;27.68;nan;100294.59;5030002;28;20049;-68
2022/07/05 07:15:25;;;;;;;15.65;10.88;;;;;;;27.76;nan;100296.38;5024075;28;20033;-68
2022/07/05 07:17:51;;;;;;;17.90;11.63;;;;;;;27.88;nan;100297.50;5020343;28;20095;-68
2022/07/05 07:20:16;;;;;;;15.43;11.45;;;;;;;28.00;nan;100297.44;5023237;28;20025;-67
2022/07/05 07:22:42;;;;;;;21.35;12.02;;;;;;;28.09;nan;100298.06;5020576;28;20030;-68
2022/07/05 07:25:08;;;;;;;23.48;11.55;;;;;;;28.30;nan;100305.19;5033798;28;20103;-68
2022/07/05 07:27:46;;;;;;;15.80;11.15;;;;;;;28.47;nan;100293.25;5024418;28;20117;-69
2022/07/05 07:30:13;;;;;;;15.50;10.93;;;;;;;28.57;nan;100290.81;5022507;28;20112;-68
2022/07/05 07:32:39;;;;;;;15.77;10.88;;;;;;;28.66;nan;100293.38;5026786;28;20044;-66
2022/07/05 07:35:05;;;;;;;16.73;12.13;;;;;;;28.78;nan;100301.41;5026003;28;20026;-67
2022/07/05 07:37:30;;;;;;;19.55;11.70;;;;;;;28.88;nan;100305.50;5022308;28;20558;-68
2022/07/05 07:39:56;;;;;;;20.42;12.20;;;;;;;28.92;nan;100292.03;5024876;28;20042;-68
2022/07/05 07:42:21;;;;;;;17.48;12.10;;;;;;;29.01;nan;100293.41;5023266;28;20108;-68
2022/07/05 07:44:47;;;;;;;16.05;10.73;;;;;;;29.11;nan;100286.69;5023017;28;20037;-67
2022/07/05 07:47:12;;;;;;;17.65;10.98;;;;;;;29.25;nan;100291.66;5020735;28;20030;-78
2022/07/05 07:49:38;;;;;;;19.48;11.05;;;;;;;29.37;nan;100293.47;5030434;28;20029;-78
2022/07/05 07:52:04;;;;;;;16.98;10.93;;;;;;;29.48;nan;100289.84;5021564;28;20030;-68
2022/07/05 07:54:29;;;;;;;18.45;10.52;;;;;;;29.57;nan;100288.81;5023742;28;20037;-68
2022/07/05 07:56:55;;;;;;;13.20;10.02;;;;;;;29.68;nan;100292.59;5024135;28;20037;-66
2022/07/05 07:59:20;;;;;;;11.30;9.18;;;;;;;29.73;nan;100278.72;5008991;28;20116;-67
2022/07/05 08:01:45;;;;;;;14.10;9.15;;;;;;;29.87;nan;100289.84;5030070;28;20498;-67
2022/07/05 08:04:12;;;;;;;16.98;9.93;;;;;;;29.94;nan;100277.56;5027380;28;20464;-67
2022/07/05 08:06:38;;;;;;;18.50;10.57;;;;;;;30.06;nan;100291.78;5020296;28;20091;-67
2022/07/05 08:09:03;;;;;;;13.00;9.85;;;;;;;30.13;nan;100285.69;5025547;28;20164;-67
2022/07/05 08:11:29;;;;;;;16.23;9.40;;;;;;;30.22;nan;100291.69;5019343;28;20041;-67
2022/07/05 08:13:54;;;;;;;13.80;8.95;;;;;;;30.27;nan;100275.13;5018488;28;20491;-67
2022/07/05 08:16:20;;;;;;;16.30;10.20;;;;;;;30.45;nan;100290.94;5018810;28;20037;-76
2022/07/05 08:21:32;;;;;;;17.00;9.07;;;;;;;30.65;nan;100289.72;5011698;28;20427;-73
2022/07/05 08:23:59;;;;;;;12.20;8.40;;;;;;;30.76;nan;100289.09;5023014;28;20030;-74
2022/07/05 08:26:25;;;;;;;15.07;8.02;;;;;;;30.79;nan;100286.44;5022097;28;20025;-74
2022/07/05 08:28:51;;;;;;;13.95;8.65;;;;;;;30.82;nan;100276.78;5017545;28;20475;-73
2022/07/05 08:31:16;;;;;;;14.70;8.73;;;;;;;30.98;nan;100276.63;5038109;28;20571;-74
2022/07/05 08:33:42;;;;;;;13.88;8.95;;;;;;;31.02;nan;100274.75;5020347;28;20037;-73
2022/07/05 08:36:07;;;;;;;14.60;8.48;;;;;;;31.14;nan;100285.44;5029124;28;20137;-67
2022/07/05 08:38:33;;;;;;;11.52;8.27;;;;;;;31.21;nan;100276.59;5023466;28;20036;-67
2022/07/05 08:40:59;;;;;;;12.18;8.13;;;;;;;31.28;nan;100280.19;5019510;28;20499;-67
2022/07/05 08:43:27;;;;;;;12.68;7.85;;;;;;;31.31;nan;100265.81;5027765;28;20022;-67
2022/07/05 08:45:53;;;;;;;11.73;6.22;;;;;;;31.41;nan;100269.88;5021625;28;20523;-67
2022/07/05 08:48:20;;;;;;;12.25;7.47;;;;;;;31.49;nan;100268.81;5038325;28;20801;-66
2022/07/05 08:50:51;;;;;;;9.75;5.80;;;;;;;31.67;nan;100274.47;5012032;28;20112;-67
2022/07/05 08:53:18;;;;;;;13.63;5.40;;;;;;;31.79;nan;100262.53;5018976;28;20377;-68
2022/07/05 08:55:45;;;;;;;9.02;5.63;;;;;;;31.86;nan;100261.84;5021599;28;20041;-67
2022/07/05 08:58:11;;;;;;;9.52;4.82;;;;;;;31.88;nan;100249.41;5026518;28;20037;-67
2022/07/05 09:00:38;;;;;;;6.63;5.50;;;;;;;32.04;nan;100260.13;5022719;28;20045;-66
2022/07/05 09:03:04;;;;;;;8.93;5.50;;;;;;;32.05;nan;100247.28;5017270;28;20029;-68
2022/07/05 09:05:33;;;;;;;7.63;5.13;;;;;;;32.20;nan;100255.22;5022108;28;20037;-67
2022/07/05 09:08:00;;;;;;;10.57;5.38;;;;;;;32.25;nan;100253.28;5018298;28;20040;-66
2022/07/05 09:10:27;;;;;;;7.10;3.78;;;;;;;32.43;nan;100249.56;5025395;28;20069;-74
2022/07/05 09:12:54;;;;;;;5.65;3.85;;;;;;;32.51;nan;100236.78;5019221;28;20611;-66
2022/07/05 09:15:20;;;;;;;10.07;4.63;;;;;;;32.73;nan;100242.38;5023550;28;20387;-66
2022/07/05 09:17:46;;;;;;;8.90;4.60;;;;;;;32.91;nan;100245.25;5027478;28;20039;-66
2022/07/05 09:20:14;;;;;;;6.18;4.45;;;;;;;33.01;nan;100237.09;5022138;28;20116;-65
2022/07/05 09:22:47;;;;;;;5.57;4.23;;;;;;;33.19;nan;100242.69;5026352;28;20509;-65
2022/07/05 09:25:17;;;;;;;6.95;4.53;;;;;;;33.31;nan;100230.66;5028563;28;20029;-64
2022/07/05 09:27:51;;;;;;;6.32;4.00;;;;;;;33.35;nan;100236.91;5028274;28;20041;-65
2022/07/05 09:30:33;;;;;;;5.35;3.05;;;;;;;33.34;nan;100234.56;5021509;28;20487;-66
2022/07/05 09:33:14;;;;;;;6.20;3.42;;;;;;;33.33;nan;100228.34;5024026;28;20184;-67
2022/07/05 09:35:42;;;;;;;9.30;4.03;;;;;;;33.41;nan;100220.97;5024949;28;20052;-66
2022/07/05 09:38:18;;;;;;;5.63;4.00;;;;;;;33.56;nan;100217.13;5024277;28;20030;-66
2022/07/05 09:41:02;;;;;;;10.32;3.78;;;;;;;33.62;nan;100207.41;5021611;28;20563;-66
2022/07/05 09:43:29;;;;;;;8.57;4.05;;;;;;;33.74;nan;100217.19;5024830;28;20072;-66
2022/07/05 09:46:00;;;;;;;9.50;4.45;;;;;;;33.78;nan;100225.38;5021315;28;20152;-65
2022/07/05 09:48:27;;;;;;;5.53;3.30;;;;;;;33.80;nan;100210.16;5024089;28;20079;-67
2022/07/05 09:51:07;;;;;;;7.22;3.63;;;;;;;33.87;nan;100217.56;5025752;28;20067;-67
2022/07/05 09:53:49;;;;;;;3.85;3.38;;;;;;;33.88;nan;100222.66;5022189;28;20129;-66
2022/07/05 09:56:15;;;;;;;4.88;3.95;;;;;;;33.83;nan;100216.78;5023930;28;20037;-67
2022/07/05 09:58:41;;;;;;;13.52;4.57;;;;;;;33.83;nan;100222.25;5024319;28;20038;-66
2022/07/05 10:01:29;;;;;;;7.70;4.00;;;;;;;33.85;nan;100206.25;5031711;28;20495;-69
2022/07/05 10:03:57;;;;;;;6.35;4.30;;;;;;;33.90;nan;100211.31;5033871;28;20042;-67
2022/07/05 10:06:24;;;;;;;8.75;4.13;;;;;;;33.93;nan;100215.22;5043470;28;20479;-66
2022/07/05 10:08:50;;;;;;;10.75;4.75;;;;;;;33.98;nan;100214.88;5026226;28;20048;-66
2022/07/05 10:11:20;;;;;;;9.63;4.70;;;;;;;34.07;nan;100221.50;5026344;28;20037;-67
2022/07/05 10:13:49;;;;;;;10.77;5.38;;;;;;;34.11;nan;100205.13;5025697;28;20034;-75
2022/07/05 10:16:20;;;;;;;6.35;4.28;;;;;;;34.22;nan;100211.41;5032664;28;20037;-67
2022/07/05 10:18:47;;;;;;;7.45;4.60;;;;;;;34.24;nan;100194.59;5028074;28;20045;-67
2022/07/05 10:21:15;;;;;;;6.90;4.30;;;;;;;34.39;nan;100211.78;5026821;28;20037;-74
2022/07/05 10:23:46;;;;;;;7.90;4.15;;;;;;;34.49;nan;100209.03;5028991;28;20034;-67
2022/07/05 10:26:13;;;;;;;4.78;4.20;;;;;;;34.56;nan;100196.53;5021930;28;21013;-66
2022/07/05 10:28:45;;;;;;;5.35;4.32;;;;;;;34.67;nan;100191.81;5028215;28;20044;-67
2022/07/05 10:31:12;;;;;;;7.03;4.63;;;;;;;34.71;nan;100187.91;5027041;28;20033;-67
2022/07/05 10:33:39;;;;;;;9.40;4.43;;;;;;;34.81;nan;100191.78;5025102;28;20041;-73
2022/07/05 10:36:05;;;;;;;8.35;4.47;;;;;;;34.88;nan;100196.47;5031978;28;20467;-68
2022/07/05 10:38:35;;;;;;;6.68;4.03;;;;;;;34.93;nan;100190.56;5022100;28;20033;-67
2022/07/05 10:41:04;;;;;;;7.80;4.28;;;;;;;35.04;nan;100185.06;5018421;28;20060;-67
2022/07/05 10:43:30;;;;;;;9.88;4.40;;;;;;;35.10;nan;100178.03;5023401;28;21259;-67
2022/07/05 10:45:56;;;;;;;6.22;4.38;;;;;;;35.18;nan;100171.34;5024898;28;20046;-67
2022/07/05 10:48:24;;;;;;;6.40;4.30;;;;;;;35.24;nan;100179.91;5025071;28;20041;-67
2022/07/05 10:50:49;;;;;;;8.77;4.85;;;;;;;35.21;nan;100167.81;5017850;28;20449;-67
2022/07/05 10:53:21;;;;;;;5.95;4.68;;;;;;;35.19;nan;100164.69;5024383;28;20060;-68
2022/07/05 10:55:53;;;;;;;9.73;4.93;;;;;;;35.28;nan;100170.53;5021141;28;20495;-67
2022/07/05 10:58:20;;;;;;;7.20;4.72;;;;;;;35.36;nan;100166.53;5016472;28;20092;-67
2022/07/05 11:00:48;;;;;;;9.68;4.85;;;;;;;35.43;nan;100165.72;5016455;28;20033;-68
2022/07/05 11:03:36;;;;;;;6.20;4.45;;;;;;;35.47;nan;100166.50;5020761;28;20537;-67
2022/07/05 11:06:02;;;;;;;5.55;4.93;;;;;;;35.48;nan;100156.31;5026997;28;20076;-76
2022/07/05 11:08:30;;;;;;;6.35;4.95;;;;;;;35.46;nan;100148.53;5026362;28;20044;-75
2022/07/05 11:11:12;;;;;;;5.63;5.00;;;;;;;35.46;nan;100158.66;5026680;28;20039;-67
2022/07/05 11:13:40;;;;;;;7.30;4.95;;;;;;;35.52;nan;100152.38;5028089;28;20045;-74
2022/07/05 11:16:22;;;;;;;14.45;5.20;;;;;;;35.49;nan;100146.94;5022521;28;20049;-68
2022/07/05 11:18:51;;;;;;;10.32;5.38;;;;;;;35.40;nan;100150.13;5026654;28;20246;-67
2022/07/05 11:21:21;;;;;;;10.98;5.10;;;;;;;35.42;nan;100149.72;5025420;28;20426;-75
2022/07/05 11:23:47;;;;;;;8.23;5.03;;;;;;;35.47;nan;100150.06;5022551;28;20083;-77
2022/07/05 11:26:15;;;;;;;12.32;5.50;;;;;;;35.51;nan;100142.63;5026456;28;20026;-68
2022/07/05 11:28:47;;;;;;;7.75;5.55;;;;;;;35.61;nan;100143.75;5024279;28;20062;-68
2022/07/05 11:31:44;;;;;;;6.32;5.60;;;;;;;35.68;nan;100145.66;5022148;28;20076;-68
2022/07/05 11:34:14;;;;;;;9.32;5.70;;;;;;;35.68;nan;100132.75;5026004;28;20044;-76
2022/07/05 11:36:40;;;;;;;7.13;5.78;;;;;;;35.76;nan;100131.50;5023589;28;20065;-67
2022/07/05 11:39:08;;;;;;;9.10;5.70;;;;;;;35.77;nan;100124.84;5035972;28;20069;-68